Meteorología y climatología de Navarra
Datos de la estación - Meteo Navarra

Estación de Pamplona GN

Altitud 455 m.


Datos desde el 15/02/2020 hasta el 16/02/2020 en horario solar
Los datos son PROVISIONALES

Anterior Página 1 de 1 Siguiente Descargar: Formato para Excel 2000 o superior   Formato csv   Formato para OpenOffice Calc
Fecha Temperatura Humedad relativa Radiación global Insolación Precipitación Vel. viento 10 m Vel. viento 10 m Dir. viento 10 m
ºC % W/m² s l/m² m/s km/h º
15/02/2020 0:00 7.0 81 0.0 0 0.0 1.3 4.8 89
15/02/2020 0:10 6.8 82 0.0 0 0.0 1.7 6.2 91
15/02/2020 0:20 6.6 83 0.0 0 0.0 1.9 6.9 86
15/02/2020 0:30 6.4 83 0.0 0 0.0 1.8 6.6 74
15/02/2020 0:40 6.3 83 0.0 0 0.0 2.4 8.7 77
15/02/2020 0:50 6.2 83 0.0 0 0.0 2.7 9.7 92
15/02/2020 1:00 6.1 83 0.0 0 0.0 1.6 5.8 97
15/02/2020 1:10 6.1 83 0.0 0 0.0 1.2 4.4 86
15/02/2020 1:20 6.2 84 0.0 0 0.0 1.6 5.7 78
15/02/2020 1:30 6.2 83 0.0 0 0.0 1.2 4.3 83
15/02/2020 1:40 6.1 83 0.0 0 0.0 1.0 3.5 50
15/02/2020 1:50 5.8 84 0.0 0 0.0 1.6 5.6 43
15/02/2020 2:00 5.7 85 0.0 0 0.0 1.6 5.8 75
15/02/2020 2:10 6.0 84 0.0 0 0.0 2.4 8.8 83
15/02/2020 2:20 5.9 84 0.0 0 0.0 1.5 5.3 76
15/02/2020 2:30 5.7 85 0.0 0 0.0 1.6 5.6 65
15/02/2020 2:40 5.8 85 0.0 0 0.0 1.7 6.2 93
15/02/2020 2:50 5.8 85 0.0 0 0.0 1.6 5.9 99
15/02/2020 3:00 5.7 85 0.0 0 0.0 0.7 2.3 93
15/02/2020 3:10 5.7 85 0.0 0 0.0 1.3 4.5 107
15/02/2020 3:20 5.6 85 0.0 0 0.0 1.3 4.5 87
15/02/2020 3:30 5.6 85 0.0 0 0.0 1.3 4.6 95
15/02/2020 3:40 5.5 85 0.0 0 0.0 1.0 3.7 85
15/02/2020 3:50 5.4 86 0.0 0 0.0 1.6 5.6 76
15/02/2020 4:00 5.3 86 0.0 0 0.0 1.2 4.5 90
15/02/2020 4:10 5.0 87 0.0 0 0.0 0.5 1.8 109
15/02/2020 4:20 5.0 87 0.0 0 0.0 1.7 5.9 82
15/02/2020 4:30 4.9 87 0.0 0 0.0 1.6 5.7 69
15/02/2020 4:40 4.7 88 0.0 0 0.0 1.5 5.3 79
15/02/2020 4:50 4.7 88 0.0 0 0.0 1.0 3.5 91
15/02/2020 5:00 4.7 88 0.0 0 0.0 1.3 4.8 91
15/02/2020 5:10 4.7 88 0.0 0 0.0 1.2 4.2 89
15/02/2020 5:20 4.5 88 0.0 0 0.0 0.7 2.5 49
15/02/2020 5:30 4.1 89 0.0 0 0.0 1.3 4.5 74
15/02/2020 5:40 4.0 90 0.0 0 0.0 0.9 3.2 64
15/02/2020 5:50 3.8 90 0.0 0 0.0 1.4 4.9 53
15/02/2020 6:00 3.7 91 0.0 0 0.0 1.6 5.9 72
15/02/2020 6:10 4.0 90 0.0 0 0.0 1.4 4.9 99
15/02/2020 6:20 4.2 89 0.0 0 0.0 1.5 5.5 88
15/02/2020 6:30 4.2 89 0.0 0 0.0 1.7 6.1 69
15/02/2020 6:40 4.0 89 0.0 0 0.0 1.0 3.5 69
15/02/2020 6:50 4.0 89 0.0 0 0.0 0.2 0.6 81
15/02/2020 7:00 3.7 89 0.0 0 0.0 0.2 0.7 53
15/02/2020 7:10 3.7 90 0.0 0 0.0 0.5 1.9 108
15/02/2020 7:20 4.0 90 1.5 0 0.0 1.0 3.4 90
15/02/2020 7:30 4.2 89 30.5 314 0.0 1.1 4.0 98
15/02/2020 7:40 4.2 89 51.1 600 0.0 1.5 5.5 72
15/02/2020 7:50 4.4 87 74.8 600 0.0 1.5 5.2 71
15/02/2020 8:00 4.7 86 101.1 600 0.0 1.1 3.9 65
15/02/2020 8:10 5.0 84 128.4 600 0.0 1.6 5.8 74
15/02/2020 8:20 5.3 83 155.4 600 0.0 0.6 2.2 62
15/02/2020 8:30 5.8 81 182.7 600 0.0 0.7 2.6 97
15/02/2020 8:40 5.9 80 212.7 600 0.0 1.2 4.3 92
15/02/2020 8:50 6.2 80 242.5 600 0.0 0.7 2.6 89
15/02/2020 9:00 7.1 78 270.2 600 0.0 0.3 0.9 72
15/02/2020 9:10 7.3 77 298.1 600 0.0 0.5 1.7 355
15/02/2020 9:20 7.8 77 325.1 600 0.0 0.3 1.1 14
15/02/2020 9:30 8.4 74 350.4 600 0.0 0.1 0.3 310
15/02/2020 9:40 9.2 71 373.2 600 0.0 0.4 1.5 313
15/02/2020 9:50 9.6 70 395.9 600 0.0 0.1 0.5 301
15/02/2020 10:00 9.7 69 418.6 600 0.0 0.2 0.8 293
15/02/2020 10:10 10.3 67 440.8 600 0.0 0.7 2.7 47
15/02/2020 10:20 10.2 68 461.7 600 0.0 0.6 2.2 83
15/02/2020 10:30 10.3 67 482.1 600 0.0 0.7 2.6 115
15/02/2020 10:40 10.8 67 499.8 600 0.0 0.5 1.8 91
15/02/2020 10:50 11.2 66 515.2 600 0.0 0.5 1.9 104
15/02/2020 11:00 11.8 66 529.4 600 0.0 0.5 1.9 126
15/02/2020 11:10 12.2 64 541.5 600 0.0 0.5 1.8 331
15/02/2020 11:20 12.5 63 550.1 600 0.0 0.6 2.3 341
15/02/2020 11:30 12.6 64 563.0 600 0.0 0.7 2.6 297
15/02/2020 11:40 12.8 63 571.0 600 0.0 0.5 1.9 290
15/02/2020 11:50 13.3 63 577.8 600 0.0 0.4 1.5 107
15/02/2020 12:00 13.8 61 580.5 600 0.0 0.4 1.6 12
15/02/2020 12:10 13.9 61 577.3 600 0.0 1.2 4.2 145
15/02/2020 12:20 14.3 62 587.6 600 0.0 0.4 1.5 137
15/02/2020 12:30 15.0 61 581.7 600 0.0 1.0 3.5 221
15/02/2020 12:40 15.3 59 600.6 600 0.0 1.2 4.3 188
15/02/2020 12:50 15.0 61 574.0 600 0.0 1.6 5.9 159
15/02/2020 13:00 15.1 60 420.3 446 0.0 1.9 6.7 186
15/02/2020 13:10 15.2 60 567.3 600 0.0 1.7 6.0 192
15/02/2020 13:20 15.4 60 435.3 600 0.0 1.5 5.5 187
15/02/2020 13:30 15.4 60 261.6 106 0.0 1.7 6.2 193
15/02/2020 13:40 15.4 60 287.0 268 0.0 2.0 7.2 219
15/02/2020 13:50 15.7 60 371.9 600 0.0 1.5 5.2 185
15/02/2020 14:00 15.8 61 395.2 600 0.0 0.7 2.6 288
15/02/2020 14:10 15.7 61 344.4 600 0.0 2.5 9.0 274
15/02/2020 14:20 15.6 61 318.2 600 0.0 1.9 6.9 239
15/02/2020 14:30 15.7 60 298.5 600 0.0 2.2 7.7 226
15/02/2020 14:40 15.8 60 271.8 600 0.0 1.4 4.9 247
15/02/2020 14:50 15.6 61 231.2 182 0.0 1.6 5.7 255
15/02/2020 15:00 15.7 60 234.1 390 0.0 1.5 5.5 251
15/02/2020 15:10 15.6 60 198.9 108 0.0 1.2 4.4 236
15/02/2020 15:20 15.5 61 178.6 0 0.0 1.1 4.0 254
15/02/2020 15:30 15.6 61 153.5 0 0.0 1.0 3.4 169
15/02/2020 15:40 15.6 61 137.3 0 0.0 1.6 5.7 219
15/02/2020 15:50 15.5 61 121.1 0 0.0 1.7 6.1 239
15/02/2020 16:00 15.1 63 93.7 0 0.0 2.1 7.4 246
15/02/2020 16:10 14.8 65 75.1 0 0.0 1.7 6.3 257
15/02/2020 16:20 14.6 66 63.6 0 0.0 1.1 3.9 261
15/02/2020 16:30 14.5 66 52.1 0 0.0 1.1 4.1 242
15/02/2020 16:40 14.3 67 34.5 0 0.0 1.3 4.7 240
15/02/2020 16:50 14.1 68 27.5 0 0.0 0.8 2.8 307
15/02/2020 17:00 14.0 68 23.0 0 0.0 0.2 0.8 328
15/02/2020 17:10 13.8 68 18.7 0 0.0 1.0 3.4 288
15/02/2020 17:20 13.7 69 3.3 0 0.0 1.5 5.5 272
15/02/2020 17:30 13.7 69 0.0 0 0.0 0.5 1.9 240
15/02/2020 17:40 13.6 69 0.0 0 0.0 0.6 2.3 260
15/02/2020 17:50 13.7 69 0.0 0 0.0 0.9 3.3 260
15/02/2020 18:00 13.5 70 0.0 0 0.0 1.4 5.1 278
15/02/2020 18:10 13.3 70 0.0 0 0.0 1.0 3.6 278
15/02/2020 18:20 13.2 70 0.0 0 0.0 0.7 2.6 224
15/02/2020 18:30 13.2 71 0.0 0 0.0 0.6 2.2 144
15/02/2020 18:40 12.8 72 0.0 0 0.0 1.0 3.6 348
15/02/2020 18:50 12.5 73 0.0 0 0.0 0.7 2.4 23
15/02/2020 19:00 12.2 75 0.0 0 0.0 0.4 1.5 37
15/02/2020 19:10 11.8 77 0.0 0 0.0 0.7 2.5 63
15/02/2020 19:20 11.7 78 0.0 0 0.0 0.7 2.6 108
15/02/2020 19:30 11.7 78 0.0 0 0.0 0.1 0.3 86
15/02/2020 19:40 11.6 79 0.0 0 0.0 0.3 1.2 61
15/02/2020 19:50 11.2 80 0.0 0 0.0 0.0 0.1 147
15/02/2020 20:00 10.8 82 0.0 0 0.0 1.3 4.8 44
15/02/2020 20:10 10.5 82 0.0 0 0.0 0.9 3.2 74
15/02/2020 20:20 10.3 83 0.0 0 0.0 0.3 1.0 72
15/02/2020 20:30 10.2 83 0.0 0 0.0 0.2 0.6 79
15/02/2020 20:40 9.8 84 0.0 0 0.0 0.6 2.1 57
15/02/2020 20:50 9.8 85 0.0 0 0.0 1.1 4.1 88
15/02/2020 21:00 9.7 84 0.0 0 0.0 1.0 3.7 72
15/02/2020 21:10 9.4 84 0.0 0 0.0 1.1 3.9 63
15/02/2020 21:20 9.3 85 0.0 0 0.0 1.1 3.8 104
15/02/2020 21:30 9.6 83 0.0 0 0.0 1.0 3.6 64
15/02/2020 21:40 9.2 85 0.0 0 0.0 1.1 3.9 82
15/02/2020 21:50 9.0 85 0.0 0 0.0 1.1 4.1 91
15/02/2020 22:00 9.1 85 0.0 0 0.0 0.6 2.1 37
15/02/2020 22:10 8.6 86 0.0 0 0.0 1.6 5.6 22
15/02/2020 22:20 8.5 87 0.0 0 0.0 1.1 4.1 97
15/02/2020 22:30 8.7 86 0.0 0 0.0 1.0 3.6 122
15/02/2020 22:40 9.1 84 0.0 0 0.0 1.0 3.6 95
15/02/2020 22:50 8.8 85 0.0 0 0.0 1.5 5.3 99
15/02/2020 23:00 8.4 85 0.0 0 0.0 1.6 5.8 45
15/02/2020 23:10 7.8 87 0.0 0 0.0 0.8 3.0 58
15/02/2020 23:20 7.5 88 0.0 0 0.0 1.0 3.6 33
15/02/2020 23:30 7.6 88 0.0 0 0.0 1.4 5.0 83
15/02/2020 23:40 8.1 86 0.0 0 0.0 0.9 3.2 87
15/02/2020 23:50 8.0 86 0.0 0 0.0 0.7 2.5 98
Anterior Página 1 de 1 Siguiente

NOTA: Tipo de datos según el color:
   - Valores diarios o 10 minutos correctos
   - Valores diarios calculados a partir de un número de datos 10 minutos menor que 144 y mayor que 120, o de un número de datos semihorarios menor que 48 y mayor que 40 (caso de las estaciones de INTIA y del Ministerio)
   - Valores diez minutos estimados


Contacto        Enlaces        Aviso legal